Wetterstation-Oberesslingen
Wetterdaten: aktuell Freitag, 14.06.2024 05:20
Datum Zeit Temperatur BodenT. -10 Temp+5cm Luftfeuchte Bod.Feuchte Luftdruck Regen Wind Richtung Richtung Sonnenschein ET Solar Taupunkt Windchill Windben Empfang
14.06.2024 05:20 11,7 C 18,9 C 11,1 C 83 % 62 cb 1012,8 hPa 0,0 l/m 0,0 km/h (0 Bft) O 90 0 min 0,000 mm 0 W/m 8,9 C 11,7 C 1,6 km/h (1 Bft) 100,00 %
14.06.2024 04:20 11,6 C 18,9 C 11,1 C 82 % 62 cb 1012,9 hPa 0,0 l/m 0,0 km/h (0 Bft) O 90 0 min 0,000 mm 0 W/m 8,6 C 11,6 C 1,6 km/h (1 Bft) 100,00 %
14.06.2024 03:20 11,2 C 19,4 C 10,6 C 83 % 62 cb 1013,4 hPa 0,0 l/m 0,0 km/h (0 Bft) N 0 0 min 0,000 mm 0 W/m 8,4 C 11,2 C 0,0 km/h (0 Bft) 100,00 %
14.06.2024 02:20 10,8 C 19,4 C 10,0 C 84 % 62 cb 1013,9 hPa 0,0 l/m 0,0 km/h (0 Bft) N 0 0 min 0,000 mm 0 W/m 8,2 C 10,8 C 0,0 km/h (0 Bft) 100,00 %
14.06.2024 01:20 10,8 C 19,4 C 9,4 C 82 % 62 cb 1014,2 hPa 0,0 l/m 0,0 km/h (0 Bft) N 0 0 min 0,000 mm 0 W/m 7,9 C 10,8 C 0,0 km/h (0 Bft) 100,00 %
14.06.2024 00:20 10,8 C 20,0 C 8,9 C 80 % 62 cb 1014,4 hPa 0,0 l/m 0,0 km/h (0 Bft) N 0 0 min 0,000 mm 0 W/m 7,5 C 10,8 C 0,0 km/h (0 Bft) 100,00 %
13.06.2024 23:20 12,2 C 20,0 C 9,4 C 73 % 62 cb 1014,9 hPa 0,0 l/m 0,0 km/h (0 Bft) N 0 0 min 0,000 mm 0 W/m 7,5 C 12,2 C 0,0 km/h (0 Bft) 100,00 %
13.06.2024 22:20 14,5 C 20,0 C 11,7 C 66 % 61 cb 1015,2 hPa 0,0 l/m 0,0 km/h (0 Bft) N 0 0 min 0,025 mm 0 W/m 8,2 C 14,5 C 0,0 km/h (0 Bft) 100,00 %
13.06.2024 21:20 16,1 C 20,0 C 13,3 C 57 % 61 cb 1015,2 hPa 0,0 l/m 0,0 km/h (0 Bft) O 90 0 min 0,051 mm 0 W/m 7,6 C 16,1 C 1,6 km/h (1 Bft) 100,00 %
13.06.2024 20:20 18,7 C 20,0 C 16,7 C 47 % 60 cb 1015,4 hPa 0,0 l/m 0,0 km/h (0 Bft) O 90 15 min 0,102 mm 51 W/m 7,2 C 18,7 C 3,2 km/h (1 Bft) 100,00 %
13.06.2024 19:20 21,6 C 20,0 C 23,9 C 38 % 59 cb 1015,5 hPa 0,0 l/m 1,6 km/h (1 Bft) SO 135 60 min 0,229 mm 221 W/m 6,7 C 21,6 C 3,2 km/h (1 Bft) 100,00 %
13.06.2024 18:20 22,5 C 20,0 C 21,1 C 35 % 58 cb 1015,8 hPa 0,0 l/m 1,6 km/h (1 Bft) N 360 60 min 0,330 mm 371 W/m 6,3 C 22,5 C 4,8 km/h (1 Bft) 100,00 %
13.06.2024 17:20 22,3 C 19,4 C 32,8 C 33 % 57 cb 1015,9 hPa 0,0 l/m 3,2 km/h (1 Bft) NW 315 55 min 0,381 mm 512 W/m 5,2 C 22,3 C 6,4 km/h (2 Bft) 99,12 %
13.06.2024 16:20 21,1 C 19,4 C 25,0 C 37 % 56 cb 1016,5 hPa 0,0 l/m 3,2 km/h (1 Bft) N-NO 22 45 min 0,432 mm 183 W/m 5,8 C 21,1 C 11,3 km/h (2 Bft) 100,00 %
13.06.2024 15:20 21,9 C 18,9 C 34,4 C 36 % 56 cb 1017,1 hPa 0,0 l/m 1,6 km/h (1 Bft) O-SO 112 45 min 0,508 mm 800 W/m 6,1 C 21,9 C 4,8 km/h (1 Bft) 100,00 %
13.06.2024 14:20 21,1 C 18,9 C 35,6 C 41 % 56 cb 1017,3 hPa 0,0 l/m 1,6 km/h (1 Bft) W-NW 292 45 min 0,457 mm 821 W/m 7,3 C 21,1 C 4,8 km/h (1 Bft) 100,00 %
13.06.2024 13:20 19,6 C 18,3 C 32,2 C 42 % 56 cb 1017,9 hPa 0,0 l/m 1,6 km/h (1 Bft) W-NW 292 30 min 0,279 mm 944 W/m 6,3 C 19,6 C 6,4 km/h (2 Bft) 99,12 %
13.06.2024 12:20 17,6 C 18,3 C 19,4 C 49 % 57 cb 1018,3 hPa 0,0 l/m 1,6 km/h (1 Bft) N-NO 22 25 min 0,432 mm 202 W/m 6,8 C 17,6 C 6,4 km/h (2 Bft) 100,00 %
13.06.2024 11:20 18,9 C 18,3 C 32,2 C 46 % 57 cb 1018,8 hPa 0,0 l/m 1,6 km/h (1 Bft) W 270 50 min 0,356 mm 791 W/m 7,0 C 18,9 C 6,4 km/h (2 Bft) 100,00 %
13.06.2024 10:20 17,4 C 18,3 C 16,1 C 52 % 57 cb 1019,1 hPa 0,0 l/m 1,6 km/h (1 Bft) NO 45 50 min 0,279 mm 624 W/m 7,4 C 17,4 C 4,8 km/h (1 Bft) 100,00 %
13.06.2024 09:20 16,2 C 18,3 C 16,1 C 60 % 58 cb 1019,1 hPa 0,0 l/m 3,2 km/h (1 Bft) N-NO 22 60 min 0,203 mm 592 W/m 8,4 C 16,2 C 8,0 km/h (2 Bft) 99,12 %
13.06.2024 08:20 14,4 C 18,3 C 16,1 C 69 % 58 cb 1019,0 hPa 0,0 l/m 1,6 km/h (1 Bft) O-NO 67 60 min 0,102 mm 330 W/m 8,8 C 14,4 C 3,2 km/h (1 Bft) 81,58 %
13.06.2024 07:20 11,8 C 18,9 C 10,6 C 83 % 59 cb 1019,0 hPa 0,0 l/m 0,0 km/h (0 Bft) O-NO 67 20 min 0,025 mm 153 W/m 9,0 C 11,8 C 1,6 km/h (1 Bft) 100,00 %
13.06.2024 06:20 8,9 C 18,9 C 7,8 C 92 % 58 cb 1018,7 hPa 0,0 l/m 0,0 km/h (0 Bft) O-SO 112 0 min 0,000 mm 18 W/m 7,7 C 8,9 C 1,6 km/h (1 Bft) 100,00 %
13.06.2024 06:00 9,2 C 18,9 C 8,3 C 93 % 58 cb 1018,7 hPa 0,0 l/m 0,0 km/h (0 Bft) N 360 0 min 0,000 mm 18 W/m 8,1 C 9,2 C 1,6 km/h (1 Bft) 100,00 %
_ Min-Zeit 06:30 08:15 06:10 16:45 12:25 04:25 - 06:00 - - - - - 13:05 06:20 06:15 08:15
Minimum _ 8,8 C 18,3 C 7,8 C 33 % 56 cb 1012,8 hPa - 0,0 km/h (0 Bft) - - - - - 4,8 C 8,9 C 0,0 km/h (0 Bft) 34,21 %
_ Max-Zeit 16:40 17:50 14:25 06:00 22:35 10:00 06:00 18:50 - - 07:00 15:00 13:25 07:55 16:40 18:50 06:00
Maximum _ 22,8 C 20,0 C 36,7 C 93 % 62 cb 1019,3 hPa 0,0 l/m 6,4 km/h
NW (2 Bft)
- - 5 min 0,508 mm 990 W/m 9,8 C 22,7 C 17,7 km/h
NW (3 Bft)
100,00 %
Durchschnitt _ 15,6 C 19,2 C 17,4 C 62 % 59 cb 1016,5 hPa #0,0 l/m 1,0 km/h (0 Bft) N - #0 min. #0,000 mm 0 W/m 7,3 C 15,6 C 3,6 km/h (1 Bft) 99,32 %